Aérodrome :
LOGIN :

S'inscrire | Disclaimer

   EN    FR    IT 

 










Légende :    VFR   VFR Marginal   IFR   IFR Intensif   IFR Très Intensif
Visi : 
Plafond : 
>= 8 km
>= 3000ft
5 à 8 km
1000 à 3000 ft
1500m à 5 km
500 à 1000 ft
800 à 1500m
200 à 500 ft
< 800m
< 200 ft
Symboles :   Orages  Brouillard  Fortes neiges  Fortes précipitations  Vent > 20 kt
SIGMETs :   Divers  Orages  Givrage  Turbulence  Onde Orograph.  Cendres Volcan.






- Altitude de l'aérodrome : 359 ft
- Code IATA : BVA


LFOB - Beauvais

DERNIER METAR :
  • 131430Z AUTO 23007KT 9999 BKN020 BKN028 BKN035 09/06 Q1002 TEMPO SHRA BKN030TCU

METARs EXPIRÉS :
  • 131400Z AUTO 22009KT 9999 SCT022 09/06 Q1002 TEMPO SHRA BKN030TCU
  • 131330Z AUTO 23009KT 190V260 9999 FEW018/// SCT049/// BKN094/// ///TCU 09/05 Q1002 TEMPO SHRA
  • 131300Z AUTO 25012KT 9999 4000 RA FEW019/// SCT026/// BKN034/// ///TCU 09/05 Q1002 NOSIG
  • 131230Z AUTO 25009KT 9999 SCT020 SCT025 BKN058 09/06 Q1003 TEMPO SHRA BKN030TCU
  • 131200Z AUTO 24012KT 9999 FEW016 BKN023 BKN098 09/06 Q1003 TEMPO SHRA BKN030TCU
  • 131130Z AUTO 23011KT 9999 SCT013 BKN021 BKN036 08/06 Q1003 TEMPO SHRA BKN030TCU

TAF TAF LFOB
Valide du 13 à 12h jusqu'au 14 à 12h UTC


131100Z 1312/1412 24008KT 9999 BKN035
TEMPO 1312/1317 SHRA BKN030TCU
BECMG 1320/1322 14015G25KT OVC013
TEMPO 1323/1404 3000 RA OVC008
BECMG 1404/1406 21013KT
ATIS : +33 3 44 11 49 28



MET'MAP, la Météo Aéronautique d'un coup d'oeil ! - Copyright ORBIFLY Décembre 2007 - Disclaimer

ORBIFLY MET'MAP TEAM :

Programmation & Développement : Alexandra Zaïnal
Conception & Développement : Baudouin d'Aumeries
Co-Programmation & Développement : Marc-Olivier Méhu
Soutien technique & logistique : Manuel Goepfert

Contact : metmap@orbifly.com




SOURCES & CREDITS :

   NOAA